Time;durP1;ratioP1;P1;durP2;ratioP2;P2;SDS_P1;SDS_P2;PMS_P1;PMS_P2;Temp;Humidity;BMP_temperature;BMP_pressure;BME280_temperature;BME280_humidity;BME280_pressure;Samples;Min_cycle;Max_cycle;Signal;HPM_P1;HPM_P2
2022/11/26 00:00:32;;;;;;;9.70;4.45;;;;;;;8.35;48.96;102193.84;5044419;28;20037;-78
2022/11/26 00:02:59;;;;;;;8.35;4.30;;;;;;;8.33;49.29;102193.09;5044090;28;20041;-78
2022/11/26 00:05:31;;;;;;;9.02;4.20;;;;;;;8.30;49.20;102191.41;5039653;28;20397;-78
2022/11/26 00:08:00;;;;;;;9.10;4.50;;;;;;;8.27;49.43;102194.28;5047340;28;20052;-78
2022/11/26 00:10:34;;;;;;;11.25;4.55;;;;;;;8.23;49.47;102200.91;5046065;28;20132;-78
2022/11/26 00:13:02;;;;;;;8.95;4.70;;;;;;;8.20;49.14;102195.63;5049167;28;20045;-77
2022/11/26 00:15:31;;;;;;;8.98;4.28;;;;;;;8.19;49.39;102206.59;5050020;28;20044;-78
2022/11/26 00:17:59;;;;;;;9.85;4.75;;;;;;;8.15;49.16;102207.75;5050064;28;20053;-79
2022/11/26 00:20:31;;;;;;;8.02;4.10;;;;;;;8.15;49.06;102210.47;5050214;28;20049;-79
2022/11/26 00:23:02;;;;;;;9.63;4.25;;;;;;;8.11;49.19;102215.19;5051320;28;20294;-78
2022/11/26 00:25:38;;;;;;;8.32;4.38;;;;;;;8.09;48.94;102216.25;5044900;28;20079;-78
2022/11/26 00:28:25;;;;;;;10.57;4.10;;;;;;;8.06;49.33;102217.28;5047703;28;20064;-78
2022/11/26 00:30:54;;;;;;;7.95;4.28;;;;;;;8.01;49.16;102221.25;5059463;28;20523;-79
2022/11/26 00:33:23;;;;;;;8.65;4.18;;;;;;;7.98;49.24;102227.75;5043103;28;20550;-78
2022/11/26 00:35:56;;;;;;;8.68;3.95;;;;;;;7.99;49.43;102225.91;5050165;28;20059;-78
2022/11/26 00:38:24;;;;;;;9.65;4.53;;;;;;;7.91;49.27;102223.59;5055078;28;20044;-78
2022/11/26 00:40:52;;;;;;;7.32;3.80;;;;;;;7.91;48.99;102231.78;5048750;28;20039;-79
2022/11/26 00:43:19;;;;;;;8.75;4.45;;;;;;;7.89;48.96;102229.13;5049629;28;20515;-78
2022/11/26 00:45:49;;;;;;;8.18;3.80;;;;;;;7.89;49.31;102237.31;5048653;28;20040;-79
2022/11/26 00:48:18;;;;;;;8.80;4.13;;;;;;;7.87;49.50;102241.06;5043159;28;20044;-78
2022/11/26 00:50:49;;;;;;;9.90;4.50;;;;;;;7.86;49.47;102240.19;5049207;28;20491;-79
2022/11/26 00:53:22;;;;;;;8.23;4.13;;;;;;;7.86;49.48;102244.75;5045416;28;20041;-79
2022/11/26 00:55:50;;;;;;;9.57;4.35;;;;;;;7.82;49.69;102251.34;5050923;28;20067;-80
2022/11/26 00:58:24;;;;;;;9.00;4.35;;;;;;;7.84;49.71;102255.78;5048545;28;20041;-79
2022/11/26 01:00:53;;;;;;;9.32;4.05;;;;;;;7.82;49.42;102260.41;5048652;28;20048;-79
2022/11/26 01:03:22;;;;;;;6.78;3.67;;;;;;;7.81;49.42;102265.94;5039402;28;20033;-79
2022/11/26 01:05:52;;;;;;;7.00;4.18;;;;;;;7.81;49.52;102272.28;5049315;28;20583;-79
2022/11/26 01:08:28;;;;;;;6.95;4.20;;;;;;;7.83;49.50;102269.47;5042136;28;20045;-78
2022/11/26 01:10:57;;;;;;;9.10;3.90;;;;;;;7.79;49.62;102268.75;5048534;28;20045;-78
2022/11/26 01:13:25;;;;;;;7.63;3.88;;;;;;;7.78;49.16;102272.44;5044546;28;20037;-79
2022/11/26 01:15:54;;;;;;;6.75;4.25;;;;;;;7.79;49.28;102273.31;5051070;28;20044;-78
2022/11/26 01:18:24;;;;;;;9.35;4.28;;;;;;;7.77;49.62;102277.94;5053714;28;20064;-78
2022/11/26 01:20:52;;;;;;;8.98;4.13;;;;;;;7.75;49.19;102279.91;5048914;28;20045;-77
2022/11/26 01:23:21;;;;;;;7.88;4.25;;;;;;;7.75;49.61;102280.78;5049673;28;20041;-79
2022/11/26 01:25:49;;;;;;;7.68;4.10;;;;;;;7.74;49.27;102279.03;5050928;28;20057;-78
2022/11/26 01:28:18;;;;;;;10.15;4.63;;;;;;;7.74;49.70;102280.88;5051038;28;20096;-83
2022/11/26 01:30:46;;;;;;;10.05;4.03;;;;;;;7.73;49.46;102281.81;5050236;28;20532;-78
2022/11/26 01:33:14;;;;;;;8.30;4.03;;;;;;;7.72;49.55;102286.38;5044917;28;20049;-78
2022/11/26 01:35:42;;;;;;;8.10;4.15;;;;;;;7.71;49.58;102284.63;5047366;28;20099;-79
2022/11/26 01:38:13;;;;;;;10.15;4.32;;;;;;;7.72;50.08;102289.13;5044481;28;20048;-78
2022/11/26 01:40:54;;;;;;;6.75;3.72;;;;;;;7.74;50.04;102294.50;5050418;28;20048;-79
2022/11/26 01:43:26;;;;;;;7.32;3.65;;;;;;;7.73;50.13;102298.16;5049995;28;20064;-79
2022/11/26 01:45:55;;;;;;;8.75;3.88;;;;;;;7.69;49.58;102289.25;5050204;28;20721;-79
2022/11/26 01:48:26;;;;;;;7.18;3.40;;;;;;;7.72;49.99;102293.69;5048012;28;20679;-78
2022/11/26 01:50:58;;;;;;;8.48;4.35;;;;;;;7.71;49.70;102287.34;5047740;28;20045;-79
2022/11/26 01:53:40;;;;;;;8.73;4.28;;;;;;;7.72;49.89;102294.56;5042321;28;20045;-78
2022/11/26 01:56:18;;;;;;;6.40;3.47;;;;;;;7.71;49.98;102289.19;5050606;28;20064;-80
2022/11/26 01:58:50;;;;;;;7.82;3.55;;;;;;;7.70;49.73;102290.16;5047670;28;20298;-79
2022/11/26 02:01:19;;;;;;;8.75;3.70;;;;;;;7.68;49.89;102292.97;5050832;28;20041;-80
2022/11/26 02:03:59;;;;;;;8.23;3.75;;;;;;;7.71;50.21;102292.78;5047602;28;20099;-78
2022/11/26 02:06:32;;;;;;;7.25;3.70;;;;;;;7.70;50.11;102293.75;5051882;28;20057;-78
2022/11/26 02:09:01;;;;;;;10.98;3.95;;;;;;;7.68;49.94;102301.16;5058613;28;20076;-78
2022/11/26 02:11:31;;;;;;;6.10;3.45;;;;;;;7.70;50.01;102290.16;5054563;28;20068;-78
2022/11/26 02:14:02;;;;;;;8.88;3.92;;;;;;;7.68;50.08;102290.25;5054974;28;20049;-79
2022/11/26 02:16:58;;;;;;;8.77;4.15;;;;;;;7.67;49.64;102291.22;5057648;28;20500;-78
2022/11/26 02:20:10;;;;;;;8.15;3.95;;;;;;;7.60;49.84;102283.44;5050609;28;20053;-79
2022/11/26 02:23:17;;;;;;;10.35;4.05;;;;;;;7.58;49.87;102278.06;5038259;28;20048;-79
2022/11/26 02:26:05;;;;;;;7.07;3.95;;;;;;;7.60;49.75;102288.91;5019850;28;20041;-78
2022/11/26 02:28:54;;;;;;;7.60;3.70;;;;;;;7.57;49.33;102292.66;5050904;28;20099;-78
2022/11/26 02:31:29;;;;;;;6.78;4.03;;;;;;;7.54;49.66;102296.41;5044696;28;20072;-80
2022/11/26 02:34:08;;;;;;;7.40;4.05;;;;;;;7.54;49.40;102292.81;5064179;28;20111;-80
2022/11/26 02:36:43;;;;;;;7.50;3.85;;;;;;;7.52;49.46;102303.78;5050991;28;20064;-78
2022/11/26 02:39:13;;;;;;;7.70;4.20;;;;;;;7.49;49.29;102298.50;5048537;28;20106;-78
2022/11/26 02:41:43;;;;;;;7.53;3.75;;;;;;;7.48;49.42;102291.28;5051282;28;20102;-78
2022/11/26 02:44:12;;;;;;;7.53;4.25;;;;;;;7.47;49.72;102294.09;5047607;28;20037;-78
2022/11/26 02:46:42;;;;;;;8.80;4.05;;;;;;;7.45;49.33;102280.53;5048062;28;20040;-79
2022/11/26 02:49:12;;;;;;;8.88;4.07;;;;;;;7.44;49.68;102280.59;5049818;28;20044;-77
2022/11/26 02:51:42;;;;;;;10.85;4.03;;;;;;;7.41;49.43;102289.84;5049796;28;20488;-78
2022/11/26 02:54:12;;;;;;;6.35;4.00;;;;;;;7.40;49.58;102296.25;5048806;28;20474;-77
2022/11/26 02:56:41;;;;;;;7.95;3.95;;;;;;;7.39;49.73;102294.47;5049793;28;20041;-77
2022/11/26 02:59:09;;;;;;;11.50;4.35;;;;;;;7.35;49.43;102298.34;5048118;28;20450;-77
2022/11/26 03:01:44;;;;;;;7.63;4.07;;;;;;;7.37;49.22;102292.78;5050132;28;20075;-78
2022/11/26 03:04:17;;;;;;;9.93;3.92;;;;;;;7.36;49.57;102293.75;5040046;28;20500;-78
2022/11/26 03:06:46;;;;;;;7.88;4.00;;;;;;;7.33;49.73;102293.91;5046697;28;20064;-78
2022/11/26 03:09:16;;;;;;;10.48;4.35;;;;;;;7.32;49.53;102290.31;5043046;28;20037;-77
2022/11/26 03:11:44;;;;;;;10.93;4.60;;;;;;;7.29;49.70;102290.47;5046727;28;20484;-77
2022/11/26 03:14:12;;;;;;;10.68;4.35;;;;;;;7.28;49.38;102293.25;5048756;28;20131;-77
2022/11/26 03:16:41;;;;;;;9.75;4.10;;;;;;;7.27;49.71;102295.09;5048403;28;20671;-77
2022/11/26 03:19:09;;;;;;;9.43;4.95;;;;;;;7.24;49.32;102298.00;5048689;28;20052;-77
2022/11/26 03:21:37;;;;;;;8.60;4.47;;;;;;;7.23;49.38;102300.78;5049637;28;20148;-78
2022/11/26 03:24:05;;;;;;;7.90;3.75;;;;;;;7.21;49.25;102309.03;5044911;28;20037;-77
2022/11/26 03:26:33;;;;;;;9.63;4.55;;;;;;;7.20;49.44;102309.97;5043649;28;20091;-77
2022/11/26 03:29:01;;;;;;;10.10;4.80;;;;;;;7.17;49.51;102311.03;5046444;28;20576;-78
2022/11/26 03:31:29;;;;;;;7.78;4.35;;;;;;;7.18;49.48;102314.66;5043838;28;20037;-77
2022/11/26 03:33:59;;;;;;;8.18;4.00;;;;;;;7.19;49.78;102321.84;5032564;28;20053;-78
2022/11/26 03:36:26;;;;;;;10.55;4.07;;;;;;;7.19;49.81;102327.28;5049686;28;20041;-77
2022/11/26 03:38:54;;;;;;;8.40;4.45;;;;;;;7.18;49.64;102322.81;5048065;28;20037;-78
2022/11/26 03:41:22;;;;;;;7.75;4.18;;;;;;;7.17;49.78;102329.22;5049621;28;20049;-79
2022/11/26 03:43:50;;;;;;;8.95;4.22;;;;;;;7.17;49.78;102338.28;5073444;28;20037;-77
2022/11/26 03:46:18;;;;;;;8.45;4.57;;;;;;;7.17;49.54;102331.94;5047189;28;20050;-78
2022/11/26 03:48:46;;;;;;;7.63;4.25;;;;;;;7.16;49.54;102335.63;5048138;28;20041;-78
2022/11/26 03:51:15;;;;;;;7.82;4.10;;;;;;;7.16;49.64;102336.50;5049798;28;20120;-77
2022/11/26 03:53:43;;;;;;;9.70;4.07;;;;;;;7.14;49.39;102348.41;5049348;28;20415;-77
2022/11/26 03:56:11;;;;;;;8.18;4.55;;;;;;;7.13;49.59;102346.66;5055511;23;20502;-80
2022/11/26 03:58:39;;;;;;;10.13;4.50;;;;;;;7.12;49.82;102350.31;5021762;28;20045;-81
2022/11/26 04:01:08;;;;;;;8.80;5.20;;;;;;;7.12;49.48;102362.09;5042285;28;20052;-82
2022/11/26 04:03:36;;;;;;;7.93;4.85;;;;;;;7.11;49.62;102367.63;5027314;28;20072;-83
2022/11/26 04:06:04;;;;;;;8.48;4.38;;;;;;;7.12;49.34;102369.38;5025862;28;20113;-84
2022/11/26 04:08:34;;;;;;;7.70;3.90;;;;;;;7.10;49.43;102369.50;5010482;28;20052;-83
2022/11/26 04:11:01;;;;;;;9.55;4.80;;;;;;;7.08;49.30;102374.13;5013513;28;20053;-82
2022/11/26 04:13:29;;;;;;;11.10;4.50;;;;;;;7.07;49.36;102372.34;5013587;28;20538;-80
2022/11/26 04:15:57;;;;;;;9.95;4.50;;;;;;;7.06;49.15;102372.41;5018194;28;20054;-82
2022/11/26 04:18:25;;;;;;;9.27;4.65;;;;;;;7.05;49.58;102382.41;5007233;28;20046;-83
2022/11/26 04:20:53;;;;;;;8.38;4.45;;;;;;;7.02;49.19;102378.97;5013654;28;20045;-81
2022/11/26 04:23:21;;;;;;;9.07;4.55;;;;;;;7.00;49.13;102384.50;5007666;28;20049;-81
2022/11/26 04:25:50;;;;;;;7.22;4.50;;;;;;;7.01;49.52;102386.28;5005959;28;20377;-81
2022/11/26 04:28:18;;;;;;;7.45;3.90;;;;;;;6.99;49.72;102390.91;5003063;28;20552;-81
2022/11/26 04:30:46;;;;;;;7.35;4.55;;;;;;;6.98;49.62;102396.41;5003826;28;20080;-82
2022/11/26 04:33:14;;;;;;;9.73;4.85;;;;;;;6.98;49.55;102404.56;5014905;28;20042;-82
2022/11/26 04:35:42;;;;;;;7.97;4.57;;;;;;;6.95;49.53;102408.31;5008810;28;20057;-82
2022/11/26 04:38:10;;;;;;;9.02;4.65;;;;;;;6.96;49.50;102418.25;5009691;28;20101;-81
2022/11/26 04:40:38;;;;;;;9.00;4.47;;;;;;;6.93;49.24;102407.53;5018210;28;20052;-81
2022/11/26 04:43:08;;;;;;;8.07;4.10;;;;;;;6.96;49.53;102410.09;5010341;28;20042;-81
2022/11/26 04:45:35;;;;;;;8.52;4.07;;;;;;;6.93;49.39;102414.81;5016764;28;20505;-82
2022/11/26 04:48:03;;;;;;;9.13;4.70;;;;;;;6.93;49.67;102417.53;5001512;28;20052;-82
2022/11/26 04:50:31;;;;;;;7.82;4.50;;;;;;;6.92;49.06;102416.66;5011652;28;20078;-81
2022/11/26 04:52:59;;;;;;;7.80;4.78;;;;;;;6.91;49.52;102420.31;5013012;28;20463;-82
2022/11/26 04:55:27;;;;;;;8.75;4.70;;;;;;;6.89;49.44;102413.16;5008135;28;20401;-82
2022/11/26 04:57:55;;;;;;;9.00;4.90;;;;;;;6.88;49.28;102422.28;5013179;28;20038;-81
2022/11/26 05:00:25;;;;;;;8.77;4.25;;;;;;;6.88;49.19;102427.72;5028510;28;20384;-82
2022/11/26 05:02:53;;;;;;;9.48;4.93;;;;;;;6.85;49.30;102433.34;5027633;28;20046;-82
2022/11/26 05:05:21;;;;;;;9.13;4.97;;;;;;;6.82;49.36;102435.25;5017583;28;20038;-82
2022/11/26 05:07:49;;;;;;;8.45;4.85;;;;;;;6.80;49.39;102439.88;5020188;28;20120;-82
2022/11/26 05:10:17;;;;;;;10.40;4.65;;;;;;;6.80;49.18;102436.25;5008236;28;20516;-81
2022/11/26 05:12:45;;;;;;;8.07;4.95;;;;;;;6.79;49.69;102438.09;5022620;28;20266;-82
2022/11/26 05:15:13;;;;;;;10.50;5.18;;;;;;;6.77;49.49;102442.75;5011096;28;20133;-82
2022/11/26 05:17:42;;;;;;;11.95;5.10;;;;;;;6.77;49.38;102447.31;5008944;28;20033;-83
2022/11/26 05:20:11;;;;;;;8.93;5.00;;;;;;;6.76;49.78;102442.81;5013142;28;20038;-82
2022/11/26 05:22:39;;;;;;;9.82;5.68;;;;;;;6.74;49.78;102440.16;5015544;28;20118;-83
2022/11/26 05:25:07;;;;;;;10.13;5.32;;;;;;;6.75;49.42;102432.88;5018749;28;20069;-83
2022/11/26 05:27:35;;;;;;;10.45;5.20;;;;;;;6.73;49.48;102435.63;5015458;28;20350;-82
2022/11/26 05:30:08;;;;;;;10.65;5.30;;;;;;;6.72;49.71;102436.59;5034922;28;20044;-82
2022/11/26 05:32:36;;;;;;;9.15;5.18;;;;;;;6.70;49.53;102440.31;5036030;28;20052;-82
2022/11/26 05:35:06;;;;;;;9.75;5.60;;;;;;;6.71;49.82;102444.81;5025890;28;20070;-81
2022/11/26 05:37:34;;;;;;;10.77;5.47;;;;;;;6.70;50.07;102441.22;5033257;28;20052;-82
2022/11/26 05:40:02;;;;;;;9.55;5.45;;;;;;;6.70;49.95;102452.09;5031135;28;20058;-81
2022/11/26 05:42:30;;;;;;;10.05;5.35;;;;;;;6.69;49.98;102450.34;5036171;28;20050;-81
2022/11/26 05:44:58;;;;;;;10.85;5.85;;;;;;;6.70;49.60;102459.38;5029661;28;20286;-81
2022/11/26 05:47:25;;;;;;;9.55;5.20;;;;;;;6.69;49.93;102461.22;5028945;28;20026;-81
2022/11/26 05:49:54;;;;;;;10.23;5.57;;;;;;;6.68;49.91;102466.75;5029447;28;20046;-81
2022/11/26 05:52:23;;;;;;;8.68;5.70;;;;;;;6.70;49.89;102470.25;5038354;28;20049;-81
2022/11/26 05:54:51;;;;;;;8.75;5.15;;;;;;;6.67;49.80;102465.84;5034827;28;20045;-82
2022/11/26 05:57:19;;;;;;;12.00;5.50;;;;;;;6.68;50.04;102461.31;5014078;28;20081;-82
2022/11/26 05:59:47;;;;;;;10.63;5.15;;;;;;;6.67;49.63;102457.69;5014738;28;20049;-82
2022/11/26 06:02:15;;;;;;;10.65;5.20;;;;;;;6.67;50.10;102460.41;5015077;28;20041;-82
2022/11/26 06:04:43;;;;;;;8.98;4.63;;;;;;;6.67;49.85;102462.25;5010786;28;20037;-82
2022/11/26 06:07:11;;;;;;;9.98;5.55;;;;;;;6.63;49.84;102461.50;5011380;28;20050;-82
2022/11/26 06:09:40;;;;;;;10.93;5.57;;;;;;;6.66;49.75;102469.53;5008157;28;20038;-81
2022/11/26 06:12:08;;;;;;;9.75;5.15;;;;;;;6.63;49.82;102461.50;5009777;28;20073;-82
2022/11/26 06:14:36;;;;;;;9.43;5.38;;;;;;;6.64;49.81;102462.38;5012217;28;20042;-82
2022/11/26 06:17:10;;;;;;;7.65;5.25;;;;;;;6.61;49.71;102462.53;5005774;28;20153;-82
2022/11/26 06:19:38;;;;;;;9.13;4.70;;;;;;;6.60;49.68;102472.53;5013285;28;20073;-81
2022/11/26 06:22:06;;;;;;;10.35;5.53;;;;;;;6.59;49.82;102476.19;5010745;28;20053;-82
2022/11/26 06:24:33;;;;;;;9.60;5.10;;;;;;;6.57;49.88;102469.94;5011762;28;20432;-83
2022/11/26 06:27:03;;;;;;;9.20;5.13;;;;;;;6.58;49.73;102479.00;5002834;28;20057;-81
2022/11/26 06:29:31;;;;;;;10.70;5.70;;;;;;;6.55;49.59;102482.72;5009486;28;20532;-81
2022/11/26 06:31:59;;;;;;;9.50;5.10;;;;;;;6.52;49.89;102482.88;5013099;28;20103;-82
2022/11/26 06:34:27;;;;;;;9.07;5.50;;;;;;;6.52;49.75;102482.88;5021684;28;20049;-83
2022/11/26 06:36:54;;;;;;;8.68;4.93;;;;;;;6.53;49.89;102483.75;5021114;28;20072;-85
2022/11/26 06:39:22;;;;;;;8.85;5.18;;;;;;;6.50;49.78;102492.94;5008473;28;20046;-84
2022/11/26 06:41:50;;;;;;;9.50;5.18;;;;;;;6.52;49.77;102484.72;5017261;28;20053;-82
2022/11/26 06:44:19;;;;;;;8.57;4.88;;;;;;;6.52;49.58;102490.16;5021968;28;20310;-82
2022/11/26 06:46:47;;;;;;;8.75;4.60;;;;;;;6.51;49.64;102501.97;5012712;28;20240;-83
2022/11/26 06:49:15;;;;;;;7.75;4.53;;;;;;;6.49;49.90;102501.16;5018843;28;20042;-82
2022/11/26 06:51:43;;;;;;;7.80;4.63;;;;;;;6.48;49.63;102489.38;5025427;28;20118;-82
2022/11/26 06:54:11;;;;;;;8.70;4.70;;;;;;;6.48;49.73;102497.56;5021063;28;20066;-82
2022/11/26 06:56:39;;;;;;;9.20;4.88;;;;;;;6.46;49.46;102499.44;5017580;28;20038;-81
2022/11/26 06:59:07;;;;;;;9.15;4.55;;;;;;;6.42;49.58;102496.00;5007552;28;20053;-81
2022/11/26 07:01:36;;;;;;;6.80;4.38;;;;;;;6.45;49.49;102497.69;5025198;28;20048;-82
2022/11/26 07:04:04;;;;;;;8.50;4.43;;;;;;;6.42;49.44;102500.56;5029925;28;20046;-82
2022/11/26 07:06:33;;;;;;;8.73;4.72;;;;;;;6.42;49.43;102501.44;5024236;28;20038;-82
2022/11/26 07:09:06;;;;;;;10.73;5.10;;;;;;;6.42;49.61;102503.28;5019442;28;20081;-82
2022/11/26 07:11:35;;;;;;;7.40;4.32;;;;;;;6.37;49.58;102502.56;5006988;28;20058;-82
2022/11/26 07:14:03;;;;;;;7.97;4.55;;;;;;;6.39;49.86;102511.56;5012904;28;20068;-82
2022/11/26 07:16:31;;;;;;;9.45;4.93;;;;;;;6.39;49.74;102517.00;5013363;28;20041;-81
2022/11/26 07:19:00;;;;;;;8.27;4.55;;;;;;;6.39;49.71;102520.59;5021776;28;20049;-81
2022/11/26 07:21:31;;;;;;;10.20;5.10;;;;;;;6.39;50.15;102528.75;5006124;28;20268;-81
2022/11/26 07:23:59;;;;;;;9.55;4.80;;;;;;;6.38;49.94;102535.13;5012724;28;20076;-82
2022/11/26 07:26:27;;;;;;;9.05;4.70;;;;;;;6.38;50.05;102540.56;5002835;28;20046;-82
2022/11/26 07:28:55;;;;;;;10.20;4.97;;;;;;;6.37;50.23;102546.97;5010817;28;20053;-82
2022/11/26 07:31:23;;;;;;;8.68;4.70;;;;;;;6.38;50.05;102548.75;5007510;28;20126;-81
2022/11/26 07:33:51;;;;;;;8.82;4.57;;;;;;;6.40;50.14;102548.69;4998649;28;20497;-80
2022/11/26 07:36:22;;;;;;;6.78;4.28;;;;;;;6.41;50.16;102559.50;4996998;28;20049;-80
2022/11/26 07:38:50;;;;;;;8.43;3.92;;;;;;;6.42;50.12;102554.94;5005635;28;20406;-82
2022/11/26 07:41:19;;;;;;;7.38;4.15;;;;;;;6.44;50.25;102558.50;5006509;28;20045;-82
2022/11/26 07:43:48;;;;;;;8.52;4.38;;;;;;;6.42;50.45;102553.13;5019766;28;20056;-82
2022/11/26 07:46:19;;;;;;;8.70;4.68;;;;;;;6.48;50.27;102553.78;5013498;28;20084;-82
2022/11/26 07:48:48;;;;;;;8.90;4.22;;;;;;;6.48;50.37;102553.78;5015289;28;20073;-82
2022/11/26 07:51:18;;;;;;;9.05;4.40;;;;;;;6.50;50.55;102555.50;5019830;28;20053;-82
2022/11/26 07:53:49;;;;;;;8.80;4.50;;;;;;;6.52;50.37;102556.31;5017733;28;20046;-82
2022/11/26 07:56:18;;;;;;;9.00;3.95;;;;;;;6.52;50.55;102560.88;5008428;28;20041;-82
2022/11/26 07:58:46;;;;;;;7.88;4.13;;;;;;;6.52;50.25;102559.03;5007634;28;20496;-83
2022/11/26 08:01:16;;;;;;;7.57;3.83;;;;;;;6.53;50.25;102552.63;5018868;28;20436;-82
2022/11/26 08:03:45;;;;;;;10.32;4.30;;;;;;;6.55;50.02;102555.28;5001474;28;20042;-83
2022/11/26 08:06:16;;;;;;;9.50;4.25;;;;;;;6.56;49.96;102551.59;5012869;28;20069;-81
2022/11/26 08:08:44;;;;;;;8.02;4.50;;;;;;;6.53;50.01;102554.50;5020602;28;20045;-82
2022/11/26 08:11:16;;;;;;;10.00;4.75;;;;;;;6.53;50.30;102551.75;5025165;28;20080;-82
2022/11/26 08:13:45;;;;;;;7.25;3.90;;;;;;;6.53;49.98;102549.03;5020640;28;20034;-81
2022/11/26 08:16:13;;;;;;;8.52;4.45;;;;;;;6.52;50.19;102548.16;5013517;28;20038;-81
2022/11/26 08:18:41;;;;;;;9.23;4.50;;;;;;;6.52;50.17;102558.16;5007199;28;20121;-81
2022/11/26 08:21:10;;;;;;;8.07;4.13;;;;;;;6.54;50.31;102553.50;5017644;28;20046;-81
2022/11/26 08:23:38;;;;;;;8.13;4.15;;;;;;;6.52;50.34;102550.88;5016622;28;20157;-81
2022/11/26 08:26:07;;;;;;;7.43;3.90;;;;;;;6.53;50.67;102558.06;5007421;28;20049;-80
2022/11/26 08:28:57;;;;;;;8.75;3.55;;;;;;;6.55;50.84;102552.56;5005454;28;20065;-81
2022/11/26 08:31:26;;;;;;;7.28;4.10;;;;;;;6.55;50.44;102560.72;5001763;28;20042;-81
2022/11/26 08:33:56;;;;;;;7.68;3.58;;;;;;;6.57;50.46;102567.88;4983768;28;20104;-81
2022/11/26 08:36:25;;;;;;;7.90;4.25;;;;;;;6.58;50.72;102569.66;5001621;28;20088;-81
2022/11/26 08:38:53;;;;;;;8.88;4.50;;;;;;;6.58;50.52;102564.19;5021721;28;20088;-82
2022/11/26 08:41:20;;;;;;;6.25;3.92;;;;;;;6.60;50.83;102561.41;5010680;28;20064;-83
2022/11/26 08:43:51;;;;;;;7.30;3.92;;;;;;;6.65;51.10;102567.53;5006517;28;20523;-82
2022/11/26 08:46:38;;;;;;;7.55;3.90;;;;;;;6.66;51.11;102569.31;5008664;28;20054;-81
2022/11/26 08:49:10;;;;;;;7.97;4.40;;;;;;;6.69;50.95;102572.78;5012614;28;20046;-81
2022/11/26 08:51:38;;;;;;;7.53;3.75;;;;;;;6.72;51.28;102574.47;5022435;28;20053;-81
2022/11/26 08:54:07;;;;;;;9.15;4.40;;;;;;;6.76;51.31;102577.03;5014381;28;20045;-80
2022/11/26 08:56:35;;;;;;;7.13;3.80;;;;;;;6.79;50.84;102581.44;5020401;28;20069;-80
2022/11/26 08:59:03;;;;;;;7.45;3.67;;;;;;;6.85;51.39;102583.03;5024235;28;20041;-79
2022/11/26 09:01:32;;;;;;;7.97;3.88;;;;;;;6.88;51.61;102582.88;5019495;28;20096;-80
2022/11/26 09:04:03;;;;;;;8.63;3.63;;;;;;;6.95;51.52;102589.78;5020726;28;20037;-79
2022/11/26 09:06:32;;;;;;;7.78;3.50;;;;;;;6.98;51.73;102586.94;5015993;28;20041;-81
2022/11/26 09:09:13;;;;;;;7.72;3.80;;;;;;;7.05;51.48;102594.75;5025471;28;20045;-81
2022/11/26 09:11:44;;;;;;;8.32;3.85;;;;;;;7.10;51.57;102595.47;5015277;28;20037;-81
2022/11/26 09:14:13;;;;;;;5.40;3.70;;;;;;;7.16;51.37;102591.56;5023777;28;20074;-81
2022/11/26 09:16:44;;;;;;;8.70;3.63;;;;;;;7.18;51.72;102593.28;5010841;28;20481;-81
2022/11/26 09:19:15;;;;;;;6.05;3.50;;;;;;;7.26;51.39;102589.31;5008730;28;20289;-81
2022/11/26 09:21:43;;;;;;;5.72;3.58;;;;;;;7.30;51.46;102605.41;5022970;28;20452;-81
2022/11/26 09:24:11;;;;;;;5.00;3.28;;;;;;;7.34;51.58;102598.91;5010214;28;20046;-82
2022/11/26 09:26:39;;;;;;;7.40;3.88;;;;;;;7.39;51.22;102605.00;5010001;28;20085;-81
2022/11/26 09:29:07;;;;;;;6.20;3.30;;;;;;;7.43;51.31;102600.31;5010896;28;20056;-82
2022/11/26 09:31:35;;;;;;;7.32;3.95;;;;;;;7.46;51.50;102595.56;5018899;28;20045;-81
2022/11/26 09:34:23;;;;;;;9.13;3.85;;;;;;;7.49;51.69;102595.44;5016595;28;20065;-82
2022/11/26 09:36:52;;;;;;;7.50;3.55;;;;;;;7.54;51.29;102597.94;5001522;28;20049;-82
2022/11/26 09:39:20;;;;;;;5.93;3.38;;;;;;;7.55;51.37;102597.88;5024713;28;20073;-83
2022/11/26 09:41:56;;;;;;;7.15;3.72;;;;;;;7.62;51.20;102605.75;5015783;28;20050;-80
2022/11/26 09:44:34;;;;;;;7.85;3.78;;;;;;;7.62;51.33;102601.19;5013555;28;20065;-81
2022/11/26 09:47:11;;;;;;;7.68;3.70;;;;;;;7.68;51.17;102602.75;5016715;28;20412;-81
2022/11/26 09:49:56;;;;;;;9.80;4.18;;;;;;;7.68;51.23;102603.63;5016986;28;20117;-81
2022/11/26 09:52:28;;;;;;;7.85;4.07;;;;;;;7.70;51.06;102609.88;5022997;28;20060;-79
2022/11/26 09:55:04;;;;;;;8.88;3.50;;;;;;;7.73;51.04;102598.84;5019880;28;20070;-80
2022/11/26 09:57:40;;;;;;;5.75;3.70;;;;;;;7.76;51.08;102600.53;5013270;23;20418;-71
2022/11/26 10:00:22;;;;;;;7.43;3.78;;;;;;;7.78;51.23;102593.16;4991262;28;20074;-75
2022/11/26 10:02:55;;;;;;;5.93;3.80;;;;;;;7.78;50.98;102596.75;5009957;28;20070;-72
2022/11/26 10:05:37;;;;;;;5.85;3.42;;;;;;;7.80;51.11;102600.31;4998424;28;20092;-75
2022/11/26 10:08:30;;;;;;;8.00;3.88;;;;;;;7.83;50.90;102602.91;5001952;28;20136;-74
2022/11/26 10:11:09;;;;;;;8.23;3.70;;;;;;;7.84;50.62;102603.78;4972153;28;20058;-74
2022/11/26 10:13:45;;;;;;;7.32;3.83;;;;;;;7.83;50.47;102605.63;5003692;28;20088;-77
2022/11/26 10:16:24;;;;;;;7.82;3.95;;;;;;;7.86;50.83;102593.66;5008305;28;20060;-75
2022/11/26 10:19:02;;;;;;;7.15;3.70;;;;;;;7.86;50.75;102599.13;5008029;28;20533;-76
2022/11/26 10:21:37;;;;;;;6.28;3.55;;;;;;;7.86;50.55;102597.28;4984870;28;20067;-75
2022/11/26 10:24:30;;;;;;;6.82;3.40;;;;;;;7.87;51.06;102600.88;5000966;28;20054;-74
2022/11/26 10:27:03;;;;;;;7.57;3.47;;;;;;;7.87;50.98;102600.88;5008803;28;20494;-77
2022/11/26 10:29:37;;;;;;;8.55;3.72;;;;;;;7.91;50.91;102597.06;4990863;28;20045;-76
2022/11/26 10:32:13;;;;;;;8.95;3.63;;;;;;;7.94;50.98;102600.50;4985089;28;20057;-77
2022/11/26 10:34:49;;;;;;;6.95;3.55;;;;;;;7.96;50.67;102603.16;4991107;28;20058;-76
2022/11/26 10:37:20;;;;;;;9.43;3.90;;;;;;;7.95;51.16;102596.81;5009840;28;20109;-77
2022/11/26 10:39:48;;;;;;;5.75;3.40;;;;;;;7.98;51.08;102606.72;4996397;28;20523;-76
2022/11/26 10:42:23;;;;;;;8.55;3.60;;;;;;;7.99;51.18;102592.13;5008960;28;20045;-76
2022/11/26 10:44:52;;;;;;;9.15;4.03;;;;;;;8.02;51.24;102596.50;5007184;28;20042;-76
2022/11/26 10:47:29;;;;;;;7.18;4.15;;;;;;;8.06;50.83;102596.31;4978394;28;20052;-76
2022/11/26 10:50:18;;;;;;;6.93;3.38;;;;;;;8.06;50.90;102590.84;5017790;28;20049;-77
2022/11/26 10:53:20;;;;;;;7.10;3.38;;;;;;;8.09;50.91;102595.28;5009151;28;20597;-76
2022/11/26 10:55:48;;;;;;;8.07;3.80;;;;;;;8.09;51.27;102598.91;4990719;28;20080;-75
2022/11/26 10:58:22;;;;;;;6.18;3.85;;;;;;;8.14;50.94;102598.69;5022365;28;20096;-75
2022/11/26 11:00:59;;;;;;;6.93;3.50;;;;;;;8.16;51.00;102600.38;5016600;28;20137;-76
2022/11/26 11:03:31;;;;;;;6.88;3.83;;;;;;;8.18;50.99;102592.09;5008403;28;20065;-75
2022/11/26 11:06:27;;;;;;;8.13;4.25;;;;;;;8.21;51.04;102594.69;5006869;28;20045;-76
2022/11/26 11:08:57;;;;;;;7.00;3.67;;;;;;;8.22;50.90;102589.16;5015669;28;20049;-77
2022/11/26 11:11:27;;;;;;;9.07;4.00;;;;;;;8.24;50.90;102583.63;5007381;28;20092;-75
2022/11/26 11:13:56;;;;;;;8.32;3.90;;;;;;;8.27;50.97;102578.00;5000263;28;20042;-75
2022/11/26 11:16:27;;;;;;;7.45;3.65;;;;;;;8.29;51.27;102581.53;5007760;28;20045;-76
2022/11/26 11:18:58;;;;;;;7.78;3.72;;;;;;;8.33;51.39;102586.78;4965241;28;20045;-76
2022/11/26 11:21:33;;;;;;;8.02;3.88;;;;;;;8.36;51.16;102582.09;5001518;28;20050;-76
2022/11/26 11:24:09;;;;;;;8.27;4.35;;;;;;;8.37;50.72;102573.84;5001445;28;20449;-76
2022/11/26 11:26:41;;;;;;;8.25;3.88;;;;;;;8.39;51.07;102581.97;5006590;28;20038;-76
2022/11/26 11:29:25;;;;;;;7.95;3.65;;;;;;;8.40;50.68;102584.63;5002507;28;20042;-74
2022/11/26 11:31:54;;;;;;;6.90;3.75;;;;;;;8.40;51.23;102581.00;4986789;28;20554;-75
2022/11/26 11:34:27;;;;;;;8.82;3.80;;;;;;;8.43;50.88;102578.09;5006372;28;20045;-75
2022/11/26 11:36:58;;;;;;;;;;;;;;;8.18;51.52;102582.06;5002355;28;20431;-74
2022/11/26 11:39:30;;;;;;;6.95;3.60;;;;;;;8.43;51.20;102583.56;4986776;28;19928;-72
2022/11/26 11:42:00;;;;;;;7.30;3.80;;;;;;;8.45;51.17;102576.19;4982919;28;20074;-75
2022/11/26 11:44:38;;;;;;;7.30;3.70;;;;;;;8.51;51.08;102570.41;4987258;28;20535;-76
2022/11/26 11:47:32;;;;;;;9.27;3.97;;;;;;;8.51;50.62;102576.75;5006200;28;20142;-75
2022/11/26 11:50:12;;;;;;;8.38;3.92;;;;;;;8.53;51.08;102577.56;5003454;28;20042;-66